createdAt,value
2024-05-09T00:03:48.154Z,96943.59
2024-05-09T00:08:49.984Z,96946.97
2024-05-09T00:13:51.867Z,96945.56
2024-05-09T00:18:54.046Z,96944.31
2024-05-09T00:23:55.911Z,96941.88
2024-05-09T00:28:57.612Z,96943.94
2024-05-09T00:33:59.496Z,96934.06
2024-05-09T00:39:01.193Z,96936.16
2024-05-09T00:44:03.081Z,96925.47
2024-05-09T00:49:05.428Z,96921.50
2024-05-09T00:54:07.205Z,96916.19
2024-05-09T00:59:09.091Z,96918.69
2024-05-09T01:04:11.551Z,96922.00
2024-05-09T01:09:13.319Z,96921.72
2024-05-09T01:14:15.034Z,96922.00
2024-05-09T01:19:26.706Z,96914.47
2024-05-09T01:24:28.656Z,96916.25
2024-05-09T01:29:30.645Z,96922.16
2024-05-09T01:34:32.382Z,96920.63
2024-05-09T01:39:34.014Z,96921.75
2024-05-09T01:44:35.729Z,96918.44
2024-05-09T01:49:37.741Z,96921.75
2024-05-09T01:54:39.492Z,96918.47
2024-05-09T01:59:41.424Z,96922.44
2024-05-09T02:04:46.288Z,96919.69
2024-05-09T02:09:51.511Z,96927.09
2024-05-09T02:14:53.173Z,96914.06
2024-05-09T02:19:54.984Z,96918.75
2024-05-09T02:24:56.814Z,96921.88
2024-05-09T02:29:58.464Z,96916.13
2024-05-09T02:35:00.279Z,96915.03
2024-05-09T02:40:01.986Z,96915.72
2024-05-09T02:45:03.783Z,96917.63
2024-05-09T02:50:07.861Z,96917.09
2024-05-09T02:55:09.775Z,96914.06
2024-05-09T03:00:18.518Z,96920.91
2024-05-09T03:05:24.203Z,96917.59
2024-05-09T03:10:28.943Z,96925.84
2024-05-09T03:15:36.293Z,96930.50
2024-05-09T03:20:39.141Z,96922.41
2024-05-09T03:25:41.206Z,96913.63
2024-05-09T03:30:43.426Z,96924.72
2024-05-09T03:35:45.439Z,96920.75
2024-05-09T03:40:48.189Z,96918.97
2024-05-09T03:45:50.712Z,96920.34
2024-05-09T03:50:52.622Z,96926.09
2024-05-09T03:55:57.004Z,96932.69
2024-05-09T04:00:58.769Z,96925.59
2024-05-09T04:06:00.487Z,96931.06
2024-05-09T04:11:02.341Z,96926.69
2024-05-09T04:16:04.168Z,96919.22
2024-05-09T04:21:06.458Z,96915.28
2024-05-09T04:26:08.826Z,96907.53
2024-05-09T04:31:10.586Z,96904.56
2024-05-09T04:36:12.299Z,96912.91
2024-05-09T04:41:13.965Z,96908.72
2024-05-09T04:46:15.641Z,96908.34
2024-05-09T04:51:17.357Z,96901.13
2024-05-09T04:56:19.230Z,96900.47
2024-05-09T05:01:20.956Z,96902.09
2024-05-09T05:06:22.634Z,96909.63
2024-05-09T05:11:24.392Z,96908.97
2024-05-09T05:16:26.076Z,96910.47
2024-05-09T05:21:28.455Z,96916.91
2024-05-09T05:26:30.232Z,96920.06
2024-05-09T05:31:32.040Z,96916.31
2024-05-09T05:36:33.835Z,96919.22
2024-05-09T05:41:35.640Z,96912.25
2024-05-09T05:46:37.332Z,96915.63
2024-05-09T05:51:39.200Z,96922.91
2024-05-09T05:56:40.944Z,96928.94
2024-05-09T06:01:42.771Z,96933.38
2024-05-09T06:06:44.528Z,96931.31
2024-05-09T06:11:46.498Z,96923.63
2024-05-09T06:16:48.277Z,96929.84
2024-05-09T06:21:50.098Z,96922.94
2024-05-09T06:26:51.789Z,96925.72
2024-05-09T06:31:54.407Z,96922.66
2024-05-09T06:36:57.031Z,96924.38
2024-05-09T06:41:59.114Z,96926.91
2024-05-09T06:47:00.898Z,96923.03
2024-05-09T06:52:02.645Z,96925.03
2024-05-09T06:57:04.965Z,96929.75
2024-05-09T07:02:06.769Z,96931.69
2024-05-09T07:07:09.435Z,96939.16
2024-05-09T07:12:11.265Z,96922.56
2024-05-09T07:17:13.279Z,96934.38
2024-05-09T07:22:15.035Z,96929.44
2024-05-09T07:27:16.679Z,96932.72
2024-05-09T07:32:18.422Z,96930.38
2024-05-09T07:37:20.124Z,96924.22
2024-05-09T07:42:21.829Z,96919.22
2024-05-09T07:48:49.034Z,96924.53
2024-05-09T07:53:34.607Z,96924.97
2024-05-09T07:58:08.420Z,96921.91
2024-05-09T08:03:10.593Z,96906.69
2024-05-09T08:08:12.292Z,96912.25
2024-05-09T08:13:14.211Z,96914.59
2024-05-09T08:18:16.216Z,96908.91
2024-05-09T08:23:18.022Z,96914.69
2024-05-09T08:28:19.862Z,96909.84
2024-05-09T08:33:21.654Z,96898.81
2024-05-09T08:38:23.389Z,96905.28
2024-05-09T08:43:25.168Z,96905.69
2024-05-09T08:48:27.075Z,96902.53
2024-05-09T08:53:28.838Z,96893.63
2024-05-09T08:58:33.570Z,96889.75
2024-05-09T09:03:35.427Z,96881.72
2024-05-09T09:08:40.335Z,96899.59
2024-05-09T09:13:42.066Z,96889.28
2024-05-09T09:18:44.323Z,96890.84
2024-05-09T09:23:46.153Z,96896.78
2024-05-09T09:28:47.841Z,96898.00
2024-05-09T09:33:49.968Z,96905.47
2024-05-09T09:38:52.049Z,96896.31
2024-05-09T09:43:53.833Z,96898.03
2024-05-09T09:48:55.556Z,96898.31
2024-05-09T09:53:57.318Z,96898.97
2024-05-09T09:58:59.275Z,96897.28
2024-05-09T10:04:01.192Z,96904.94
2024-05-09T10:09:02.964Z,96905.00
2024-05-09T10:14:04.781Z,96901.28
2024-05-09T10:19:06.635Z,96897.03
2024-05-09T10:24:08.366Z,96898.59
2024-05-09T10:29:13.733Z,96884.22
2024-05-09T10:34:19.700Z,96879.00
2024-05-09T10:39:21.613Z,96872.75
2024-05-09T10:44:23.247Z,96872.50
2024-05-09T10:49:25.034Z,96869.44
2024-05-09T10:54:35.724Z,96862.91
2024-05-09T10:59:39.362Z,96868.25
2024-05-09T11:04:41.396Z,96862.63
2024-05-09T11:09:43.290Z,96861.09
2024-05-09T11:14:54.646Z,96848.22
2024-05-09T11:19:56.506Z,96847.44
2024-05-09T11:24:58.440Z,96841.44
2024-05-09T11:30:01.198Z,96846.56
2024-05-09T11:35:02.866Z,96847.63
2024-05-09T11:40:07.073Z,96840.28
2024-05-09T11:45:13.218Z,96839.06
2024-05-09T11:50:22.555Z,96823.78
2024-05-09T11:55:36.223Z,96822.34
2024-05-09T12:00:38.207Z,96820.31
2024-05-09T12:05:40.043Z,96820.13
2024-05-09T12:10:41.946Z,96817.44
2024-05-09T12:15:43.938Z,96809.47
2024-05-09T12:20:45.685Z,96801.31
2024-05-09T12:25:47.418Z,96802.19
2024-05-09T12:30:50.612Z,96806.25
2024-05-09T12:35:52.330Z,96796.50
2024-05-09T12:40:54.326Z,96803.22
2024-05-09T12:45:56.353Z,96790.97
2024-05-09T12:50:58.269Z,96780.81
2024-05-09T12:56:02.413Z,96775.88
2024-05-09T13:01:05.698Z,96780.38
2024-05-09T13:06:07.372Z,96771.19
2024-05-09T13:11:09.280Z,96775.50
2024-05-09T13:16:11.068Z,96764.47
2024-05-09T13:21:12.778Z,96759.56
2024-05-09T13:26:14.420Z,96763.50
2024-05-09T13:31:16.134Z,96757.38
2024-05-09T13:36:17.850Z,96754.75
2024-05-09T13:41:19.523Z,96746.41
2024-05-09T13:46:21.585Z,96745.16
2024-05-09T13:51:23.715Z,96741.03
2024-05-09T13:56:25.570Z,96732.38
2024-05-09T14:01:27.432Z,96727.38
2024-05-09T14:06:29.168Z,96725.00
2024-05-09T14:11:31.276Z,96720.72
2024-05-09T14:16:33.252Z,96715.19
2024-05-09T14:21:35.046Z,96712.94
2024-05-09T14:26:36.776Z,96711.53
2024-05-09T14:31:39.767Z,96706.50
2024-05-09T14:36:41.656Z,96697.50
2024-05-09T14:41:43.410Z,96685.13
2024-05-09T14:46:45.181Z,96690.41
2024-05-09T14:51:47.735Z,96689.75
2024-05-09T14:56:49.396Z,96679.56
2024-05-09T15:01:51.243Z,96682.63
2024-05-09T15:06:53.019Z,96670.41
2024-05-09T15:11:54.767Z,96675.06
2024-05-09T15:16:57.323Z,96672.84
2024-05-09T15:21:59.264Z,96660.84
2024-05-09T15:27:01.105Z,96662.06
2024-05-09T15:32:02.811Z,96659.47
2024-05-09T15:37:04.707Z,96654.16
2024-05-09T15:42:06.642Z,96652.09
2024-05-09T15:47:08.331Z,96656.56
2024-05-09T15:52:10.181Z,96658.81
2024-05-09T15:57:12.306Z,96652.69
2024-05-09T16:02:14.304Z,96649.66
2024-05-09T16:07:16.416Z,96641.50
2024-05-09T16:12:18.087Z,96638.03
2024-05-09T16:17:19.792Z,96642.94
2024-05-09T16:22:21.501Z,96640.69
2024-05-09T16:27:23.409Z,96643.53
2024-05-09T16:32:25.218Z,96638.25
2024-05-09T16:37:29.553Z,96638.66
2024-05-09T16:42:31.460Z,96634.16
2024-05-09T16:47:33.500Z,96631.72
2024-05-09T16:52:35.289Z,96628.91
2024-05-09T16:57:37.008Z,96633.75
2024-05-09T17:02:39.824Z,96620.94
2024-05-09T17:07:41.687Z,96626.22
2024-05-09T17:12:43.410Z,96626.03
2024-05-09T17:17:45.137Z,96618.88
2024-05-09T17:22:46.862Z,96617.25
2024-05-09T17:27:48.610Z,96620.84
2024-05-09T17:32:50.490Z,96619.16
2024-05-09T17:37:52.232Z,96618.47
2024-05-09T17:42:54.527Z,96621.75
2024-05-09T17:47:56.642Z,96620.03
2024-05-09T17:52:58.498Z,96624.03
2024-05-09T17:58:00.889Z,96626.44
2024-05-09T18:03:02.947Z,96630.81
2024-05-09T18:08:06.151Z,96621.00
2024-05-09T18:13:09.021Z,96619.66
2024-05-09T18:18:11.477Z,96621.97
2024-05-09T18:23:14.838Z,96631.75
2024-05-09T18:28:17.995Z,96634.78
2024-05-09T18:33:20.631Z,96631.00
2024-05-09T18:38:26.617Z,96629.91
2024-05-09T18:43:35.157Z,96630.16
2024-05-09T18:48:43.830Z,96628.25
2024-05-09T18:53:46.237Z,96643.84
2024-05-09T18:58:48.020Z,96644.78
2024-05-09T19:03:50.449Z,96651.22
2024-05-09T19:08:52.309Z,96657.28
2024-05-09T19:13:54.238Z,96658.28
2024-05-09T19:18:57.006Z,96658.00
2024-05-09T19:23:58.826Z,96662.31
2024-05-09T19:29:00.511Z,96657.78
2024-05-09T19:34:02.345Z,96662.56
2024-05-09T19:39:04.394Z,96668.47
2024-05-09T19:44:06.239Z,96672.97
2024-05-09T19:49:08.152Z,96667.25
2024-05-09T19:54:10.639Z,96674.81
2024-05-09T19:59:12.940Z,96671.19
2024-05-09T20:04:14.851Z,96675.22
2024-05-09T20:09:16.587Z,96676.34
2024-05-09T20:14:18.280Z,96675.94
2024-05-09T20:19:20.486Z,96673.94
2024-05-09T20:24:22.294Z,96673.56
2024-05-09T20:29:24.013Z,96671.34
2024-05-09T20:34:25.822Z,96668.41
2024-05-09T20:39:27.601Z,96660.88
2024-05-09T20:44:29.334Z,96663.78
2024-05-09T20:49:31.081Z,96671.84
2024-05-09T20:54:32.951Z,96658.75
2024-05-09T20:59:34.622Z,96662.03
2024-05-09T21:04:36.457Z,96661.84
2024-05-09T21:09:38.446Z,96657.13
2024-05-09T21:14:40.318Z,96669.47
2024-05-09T21:19:41.998Z,96660.47
2024-05-09T21:24:43.726Z,96654.59
2024-05-09T21:29:45.454Z,96653.28
2024-05-09T21:34:47.173Z,96664.69
2024-05-09T21:39:49.333Z,96652.47
2024-05-09T21:44:51.172Z,96657.72
2024-05-09T21:49:52.964Z,96649.69
2024-05-09T21:54:54.623Z,96653.97
2024-05-09T21:59:56.377Z,96649.09
2024-05-09T22:04:58.212Z,96646.41
2024-05-09T22:10:00.155Z,96644.94
2024-05-09T22:15:02.032Z,96640.84
2024-05-09T22:20:11.648Z,96637.59
2024-05-09T22:25:16.610Z,96646.97
2024-05-09T22:30:23.981Z,96647.78
2024-05-09T22:35:33.026Z,96645.97
2024-05-09T22:40:45.415Z,96639.78
2024-05-09T22:45:50.623Z,96646.81
2024-05-09T22:50:53.134Z,96641.25
2024-05-09T22:55:54.846Z,96644.50
2024-05-09T23:00:56.598Z,96646.97
2024-05-09T23:05:58.439Z,96637.97
2024-05-09T23:11:00.273Z,96632.44
2024-05-09T23:16:02.466Z,96630.81
2024-05-09T23:21:04.488Z,96634.25
2024-05-09T23:26:06.142Z,96650.13
2024-05-09T23:31:08.095Z,96645.53
2024-05-09T23:36:09.867Z,96641.91
2024-05-09T23:41:11.661Z,96646.00
2024-05-09T23:46:13.611Z,96642.19
2024-05-09T23:51:15.400Z,96640.34
2024-05-09T23:56:17.228Z,96635.34
